Time;durP1;ratioP1;P1;durP2;ratioP2;P2;SDS_P1;SDS_P2;PMS_P1;PMS_P2;Temp;Humidity;BMP_temperature;BMP_pressure;BME280_temperature;BME280_humidity;BME280_pressure;Samples;Min_cycle;Max_cycle;Signal;HPM_P1;HPM_P2
2023/09/07 00:00:30;;;;;;;15.27;13.77;;;;;;;;;;5035299;28;20434;-71
2023/09/07 00:02:56;;;;;;;15.73;14.20;;;;;;;;;;5034732;28;20434;-71
2023/09/07 00:05:22;;;;;;;12.27;11.10;;;;;;;;;;5035749;28;20427;-70
2023/09/07 00:07:48;;;;;;;12.23;9.10;;;;;;;;;;5035088;28;20419;-72
2023/09/07 00:10:14;;;;;;;10.10;9.30;;;;;;;;;;5035256;28;20467;-72
2023/09/07 00:12:40;;;;;;;8.23;7.63;;;;;;;;;;5035147;28;20420;-71
2023/09/07 00:15:07;;;;;;;7.50;6.93;;;;;;;;;;5035284;28;20466;-71
2023/09/07 00:17:33;;;;;;;6.83;6.20;;;;;;;;;;5035202;28;20511;-69
2023/09/07 00:19:59;;;;;;;7.13;6.43;;;;;;;;;;5034855;28;20447;-70
2023/09/07 00:22:25;;;;;;;6.80;5.90;;;;;;;;;;5033552;28;20427;-70
2023/09/07 00:24:51;;;;;;;5.47;5.17;;;;;;;;;;5034998;28;20485;-70
2023/09/07 00:27:18;;;;;;;5.03;4.73;;;;;;;;;;5034706;28;20423;-71
2023/09/07 00:29:44;;;;;;;6.03;5.63;;;;;;;;;;5034940;28;20478;-72
2023/09/07 00:32:10;;;;;;;5.40;5.00;;;;;;;;;;5034593;28;20432;-70
2023/09/07 00:34:36;;;;;;;5.23;4.83;;;;;;;;;;5034833;28;20445;-71
2023/09/07 00:37:02;;;;;;;5.37;4.90;;;;;;;;;;5034851;28;20930;-73
2023/09/07 00:39:28;;;;;;;5.03;4.73;;;;;;;;;;5034578;28;20891;-72
2023/09/07 00:41:55;;;;;;;4.87;4.77;;;;;;;;;;5034618;28;20514;-71
2023/09/07 00:44:21;;;;;;;5.07;4.87;;;;;;;;;;5034580;28;20482;-70
2023/09/07 00:46:47;;;;;;;5.40;5.10;;;;;;;;;;5034639;28;20779;-70
2023/09/07 00:49:13;;;;;;;5.73;5.33;;;;;;;;;;5034576;28;20458;-71
2023/09/07 00:51:39;;;;;;;5.87;5.50;;;;;;;;;;5034198;28;20483;-69
2023/09/07 00:54:05;;;;;;;5.80;5.40;;;;;;;;;;5034275;28;20458;-70
2023/09/07 00:56:32;;;;;;;4.67;4.47;;;;;;;;;;5034082;28;20526;-70
2023/09/07 00:59:00;;;;;;;4.53;4.33;;;;;;;;;;5033990;28;20416;-69
2023/09/07 01:01:26;;;;;;;4.43;3.63;;;;;;;;;;5034834;28;20481;-72
2023/09/07 01:03:52;;;;;;;5.13;4.63;;;;;;;;;;5034084;28;20954;-72
2023/09/07 01:06:22;;;;;;;6.50;4.80;;;;;;;;;;5034077;28;20501;-69
2023/09/07 01:08:56;;;;;;;8.70;3.80;;;;;;;;;;5032614;28;20423;-71
2023/09/07 01:11:26;;;;;;;4.50;4.30;;;;;;;;;;5032542;28;20481;-71
2023/09/07 01:13:56;;;;;;;5.00;4.60;;;;;;;;;;5034172;28;20427;-71
2023/09/07 01:16:23;;;;;;;4.50;4.17;;;;;;;;;;5034086;28;20501;-71
2023/09/07 01:18:49;;;;;;;4.60;3.30;;;;;;;;;;5033929;28;20826;-70
2023/09/07 01:21:15;;;;;;;5.80;5.20;;;;;;;;;;5034011;28;20416;-69
2023/09/07 01:23:42;;;;;;;5.37;4.93;;;;;;;;;;5034009;28;20423;-70
2023/09/07 01:26:09;;;;;;;5.13;4.30;;;;;;;;;;5033610;28;20451;-71
2023/09/07 01:28:38;;;;;;;5.40;4.43;;;;;;;;;;5033883;28;20422;-71
2023/09/07 01:34:08;;;;;;;4.83;4.43;;;;;;;;;;5033573;28;20426;-72
2023/09/07 01:36:34;;;;;;;4.40;4.10;;;;;;;;;;5033956;28;20442;-70
2023/09/07 01:39:00;;;;;;;3.97;3.77;;;;;;;;;;5033316;28;20919;-69
2023/09/07 01:41:26;;;;;;;4.10;3.90;;;;;;;;;;5033370;28;20442;-69
2023/09/07 01:43:52;;;;;;;6.60;4.80;;;;;;;;;;5033694;28;20493;-70
2023/09/07 01:46:18;;;;;;;4.83;4.37;;;;;;;;;;5033464;28;20866;-71
2023/09/07 01:48:44;;;;;;;4.43;4.23;;;;;;;;;;5033217;28;20430;-72
2023/09/07 01:51:10;;;;;;;4.33;4.20;;;;;;;;;;5033101;28;21001;-70
2023/09/07 01:53:36;;;;;;;4.93;4.50;;;;;;;;;;5033290;28;20411;-69
2023/09/07 01:56:02;;;;;;;4.47;4.27;;;;;;;;;;5032738;28;20422;-70
2023/09/07 01:58:28;;;;;;;4.70;4.40;;;;;;;;;;5033213;28;20411;-70
2023/09/07 02:00:58;;;;;;;9.60;4.13;;;;;;;;;;5033140;28;20420;-69
2023/09/07 02:03:24;;;;;;;4.27;3.93;;;;;;;;;;5034157;28;20411;-71
2023/09/07 02:05:50;;;;;;;5.77;4.00;;;;;;;;;;5033162;28;20925;-70
2023/09/07 02:08:16;;;;;;;8.73;4.47;;;;;;;;;;5033306;28;20745;-70
2023/09/07 02:10:42;;;;;;;4.37;3.70;;;;;;;;;;5033172;28;20563;-69
2023/09/07 02:13:08;;;;;;;5.23;4.60;;;;;;;;;;5033025;28;20447;-70
2023/09/07 02:15:38;;;;;;;4.60;4.30;;;;;;;;;;5033006;28;20428;-69
2023/09/07 02:18:05;;;;;;;3.90;3.80;;;;;;;;;;5033343;28;20945;-71
2023/09/07 02:20:31;;;;;;;7.00;5.20;;;;;;;;;;5033163;28;20423;-72
2023/09/07 02:22:57;;;;;;;7.93;4.40;;;;;;;;;;5033165;28;20426;-72
2023/09/07 02:25:24;;;;;;;5.70;4.07;;;;;;;;;;5033457;28;20919;-72
2023/09/07 02:27:50;;;;;;;6.20;3.80;;;;;;;;;;5032843;28;20416;-72
2023/09/07 02:30:16;;;;;;;4.50;4.30;;;;;;;;;;5032847;28;21063;-70
2023/09/07 02:32:43;;;;;;;4.27;4.07;;;;;;;;;;5033385;28;20416;-70
2023/09/07 02:35:09;;;;;;;6.17;5.77;;;;;;;;;;5033030;28;20443;-72
2023/09/07 02:37:38;;;;;;;6.10;5.67;;;;;;;;;;5033382;28;20581;-72
2023/09/07 02:40:07;;;;;;;4.70;4.23;;;;;;;;;;5033188;28;20431;-70
2023/09/07 02:42:34;;;;;;;4.40;4.00;;;;;;;;;;5033039;28;20416;-72
2023/09/07 02:45:00;;;;;;;4.87;4.57;;;;;;;;;;5032692;28;20856;-70
2023/09/07 02:47:26;;;;;;;4.27;3.97;;;;;;;;;;5032920;28;20434;-70
2023/09/07 02:49:52;;;;;;;30.13;5.23;;;;;;;;;;5032491;28;20462;-69
2023/09/07 02:52:18;;;;;;;6.80;5.07;;;;;;;;;;5032646;28;20430;-70
2023/09/07 02:54:44;;;;;;;4.30;3.90;;;;;;;;;;5032552;28;20469;-70
2023/09/07 02:57:10;;;;;;;4.03;3.80;;;;;;;;;;5032877;28;20526;-71
2023/09/07 02:59:36;;;;;;;6.53;4.23;;;;;;;;;;5032499;28;20536;-71
2023/09/07 03:02:01;;;;;;;6.43;4.40;;;;;;;;;;5032482;28;20426;-70
2023/09/07 03:04:27;;;;;;;5.00;3.67;;;;;;;;;;5032621;28;20418;-70
2023/09/07 03:06:53;;;;;;;4.67;4.33;;;;;;;;;;5032982;28;20407;-71
2023/09/07 03:09:19;;;;;;;4.40;4.10;;;;;;;;;;5036293;28;20426;-72
2023/09/07 03:11:45;;;;;;;4.23;4.13;;;;;;;;;;5036359;28;20547;-71
2023/09/07 03:14:11;;;;;;;4.40;4.10;;;;;;;;;;5036457;28;20462;-70
2023/09/07 03:16:38;;;;;;;7.20;4.20;;;;;;;;;;5036093;28;20435;-70
2023/09/07 03:19:04;;;;;;;5.70;5.30;;;;;;;;;;5036242;28;20422;-71
2023/09/07 03:21:30;;;;;;;4.70;4.30;;;;;;;;;;5035991;28;20423;-69
2023/09/07 03:23:57;;;;;;;5.43;4.93;;;;;;;;;;5036202;28;20442;-69
2023/09/07 03:26:24;;;;;;;6.60;5.40;;;;;;;;;;5035963;28;20415;-73
2023/09/07 03:28:51;;;;;;;4.63;4.33;;;;;;;;;;5034555;28;20535;-70
2023/09/07 03:31:17;;;;;;;4.60;4.30;;;;;;;;;;5035829;28;20481;-71
2023/09/07 03:33:42;;;;;;;5.23;4.93;;;;;;;;;;5035749;28;20411;-71
2023/09/07 03:36:09;;;;;;;5.03;4.73;;;;;;;;;;5034503;28;20428;-70
2023/09/07 03:38:35;;;;;;;4.57;4.27;;;;;;;;;;5035923;28;20788;-72
2023/09/07 03:41:01;;;;;;;6.97;4.53;;;;;;;;;;5035487;28;20852;-72
2023/09/07 03:43:27;;;;;;;4.10;4.00;;;;;;;;;;5034378;28;20447;-70
2023/09/07 03:45:53;;;;;;;4.63;4.23;;;;;;;;;;5034650;28;20927;-72
2023/09/07 03:48:20;;;;;;;5.27;4.73;;;;;;;;;;5035421;28;20915;-72
2023/09/07 03:50:45;;;;;;;7.47;3.97;;;;;;;;;;5035590;28;20538;-70
2023/09/07 03:53:11;;;;;;;4.67;4.37;;;;;;;;;;5035681;28;20926;-70
2023/09/07 03:55:41;;;;;;;4.10;3.90;;;;;;;;;;5035212;28;20818;-70
2023/09/07 03:58:08;;;;;;;3.60;3.40;;;;;;;;;;5035287;28;20926;-69
2023/09/07 04:00:34;;;;;;;4.77;4.23;;;;;;;;;;5035432;28;20455;-71
2023/09/07 04:03:00;;;;;;;14.53;4.00;;;;;;;;;;5035391;28;20517;-70
2023/09/07 04:05:26;;;;;;;3.70;3.53;;;;;;;;;;5035744;28;20883;-70
2023/09/07 04:07:52;;;;;;;3.40;3.30;;;;;;;;;;5035163;28;20860;-71
2023/09/07 04:10:18;;;;;;;4.37;3.87;;;;;;;;;;5035304;28;20478;-72
2023/09/07 04:12:44;;;;;;;9.60;4.47;;;;;;;;;;5035272;28;20415;-72
2023/09/07 04:15:10;;;;;;;6.60;3.60;;;;;;;;;;5033811;28;20522;-70
2023/09/07 04:17:40;;;;;;;7.20;4.47;;;;;;;;;;5035121;28;20848;-70
2023/09/07 04:20:07;;;;;;;4.30;4.00;;;;;;;;;;5035112;28;20431;-69
2023/09/07 04:22:33;;;;;;;4.40;4.10;;;;;;;;;;5035110;28;20522;-73
2023/09/07 04:24:59;;;;;;;4.10;4.00;;;;;;;;;;5033541;28;20431;-70
2023/09/07 04:27:25;;;;;;;6.53;3.60;;;;;;;;;;5034987;28;20466;-72
2023/09/07 04:29:51;;;;;;;3.80;3.60;;;;;;;;;;5034918;28;20502;-70
2023/09/07 04:32:17;;;;;;;4.17;3.90;;;;;;;;;;5034839;28;20412;-70
2023/09/07 04:34:43;;;;;;;4.00;3.70;;;;;;;;;;5035183;28;20422;-69
2023/09/07 04:37:09;;;;;;;3.57;3.47;;;;;;;;;;5034455;28;20765;-69
2023/09/07 04:39:35;;;;;;;4.63;4.23;;;;;;;;;;5034410;28;20426;-71
2023/09/07 04:42:01;;;;;;;4.80;4.50;;;;;;;;;;5034431;28;20188;-70
2023/09/07 04:44:28;;;;;;;4.20;4.00;;;;;;;;;;5033142;28;20432;-70
2023/09/07 04:46:55;;;;;;;9.20;3.67;;;;;;;;;;5034513;28;20439;-70
2023/09/07 04:49:21;;;;;;;3.70;3.60;;;;;;;;;;5034293;28;20430;-71
2023/09/07 04:51:47;;;;;;;2.97;2.87;;;;;;;;;;5034406;28;20475;-72
2023/09/07 04:54:13;;;;;;;3.73;3.40;;;;;;;;;;5034195;28;20459;-72
2023/09/07 04:56:39;;;;;;;4.40;4.00;;;;;;;;;;5035030;28;20489;-70
2023/09/07 04:59:05;;;;;;;3.73;2.60;;;;;;;;;;5034120;28;20427;-70
2023/09/07 05:01:32;;;;;;;6.93;2.73;;;;;;;;;;5034268;28;20459;-70
2023/09/07 05:03:58;;;;;;;3.30;3.10;;;;;;;;;;5034055;28;20907;-69
2023/09/07 05:06:26;;;;;;;3.63;2.97;;;;;;;;;;5034320;28;20423;-70
2023/09/07 05:08:52;;;;;;;6.47;2.13;;;;;;;;;;5032706;28;20423;-69
2023/09/07 05:11:18;;;;;;;2.63;2.60;;;;;;;;;;5033982;28;20470;-70
2023/09/07 05:13:43;;;;;;;5.73;3.20;;;;;;;;;;5034073;28;20415;-69
2023/09/07 05:16:09;;;;;;;18.63;13.23;;;;;;;;;;5032645;28;20435;-70
2023/09/07 05:18:35;;;;;;;22.53;14.40;;;;;;;;;;5032567;28;20497;-68
2023/09/07 05:24:05;;;;;;;7.57;4.60;;;;;;;;;;5034003;28;20454;-69
2023/09/07 05:26:31;;;;;;;6.27;5.00;;;;;;;;;;5033611;28;20907;-70
2023/09/07 05:28:57;;;;;;;5.73;5.00;;;;;;;;;;5034022;28;20455;-69
2023/09/07 05:31:23;;;;;;;6.10;5.50;;;;;;;;;;5032817;28;20828;-70
2023/09/07 05:33:49;;;;;;;22.80;5.60;;;;;;;;;;5033629;28;20429;-69
2023/09/07 05:36:15;;;;;;;14.50;5.73;;;;;;;;;;5033763;28;20427;-69
2023/09/07 05:38:41;;;;;;;6.13;4.30;;;;;;;;;;5033732;28;20415;-69
2023/09/07 05:41:07;;;;;;;4.43;3.80;;;;;;;;;;5033242;28;20423;-72
2023/09/07 05:43:33;;;;;;;4.47;4.20;;;;;;;;;;5033392;28;20469;-72
2023/09/07 05:45:59;;;;;;;7.30;5.70;;;;;;;;;;5033385;28;20427;-71
2023/09/07 05:48:25;;;;;;;6.97;6.47;;;;;;;;;;5033332;28;20421;-71
2023/09/07 05:50:52;;;;;;;7.17;6.27;;;;;;;;;;5033458;28;20498;-73
2023/09/07 05:53:20;;;;;;;5.20;5.00;;;;;;;;;;5033262;28;20429;-72
2023/09/07 05:55:46;;;;;;;6.07;5.53;;;;;;;;;;5033132;28;20541;-71
2023/09/07 05:58:14;;;;;;;10.40;5.23;;;;;;;;;;5033218;28;20408;-72
2023/09/07 06:00:40;;;;;;;6.20;5.60;;;;;;;;;;5033390;28;20419;-73
2023/09/07 06:03:07;;;;;;;13.43;6.30;;;;;;;;;;5034083;28;20775;-71
2023/09/07 06:05:36;;;;;;;13.47;7.40;;;;;;;;;;5033132;28;20423;-72
2023/09/07 06:08:03;;;;;;;41.70;8.00;;;;;;;;;;5033083;28;20437;-72
2023/09/07 06:10:29;;;;;;;27.27;7.17;;;;;;;;;;5033230;28;20471;-72
2023/09/07 06:12:56;;;;;;;16.90;5.80;;;;;;;;;;5033117;28;20422;-72
2023/09/07 06:15:23;;;;;;;14.70;6.77;;;;;;;;;;5033621;28;20927;-71
2023/09/07 06:17:49;;;;;;;7.40;5.27;;;;;;;;;;5033024;28;20411;-72
2023/09/07 06:20:15;;;;;;;10.03;5.37;;;;;;;;;;5032883;28;20794;-72
2023/09/07 06:22:41;;;;;;;12.50;5.97;;;;;;;;;;5033149;28;20411;-73
2023/09/07 06:25:07;;;;;;;5.97;5.43;;;;;;;;;;5032953;28;20950;-71
2023/09/07 06:27:33;;;;;;;7.60;4.87;;;;;;;;;;5032924;28;20915;-73
2023/09/07 06:29:59;;;;;;;9.60;4.83;;;;;;;;;;5032760;28;20454;-72
2023/09/07 06:32:25;;;;;;;5.87;5.37;;;;;;;;;;5032691;28;20430;-71
2023/09/07 06:34:51;;;;;;;5.80;4.70;;;;;;;;;;5031564;28;20419;-72
2023/09/07 06:37:18;;;;;;;5.50;5.00;;;;;;;;;;5033062;28;20418;-72
2023/09/07 06:39:44;;;;;;;9.00;5.20;;;;;;;;;;5033096;28;20419;-70
2023/09/07 06:42:10;;;;;;;7.70;4.57;;;;;;;;;;5035583;28;20419;-70
2023/09/07 06:44:36;;;;;;;6.33;5.10;;;;;;;;;;5037004;28;20418;-71
2023/09/07 06:47:02;;;;;;;7.13;5.37;;;;;;;;;;5036672;28;20419;-70
2023/09/07 06:49:29;;;;;;;6.23;5.77;;;;;;;;;;5036936;28;20823;-72
2023/09/07 06:51:55;;;;;;;7.50;6.30;;;;;;;;;;5036866;28;20427;-71
2023/09/07 06:54:21;;;;;;;5.87;5.57;;;;;;;;;;5036479;28;20516;-70
2023/09/07 06:56:47;;;;;;;7.10;6.70;;;;;;;;;;5036733;28;20427;-70
2023/09/07 06:59:13;;;;;;;8.30;6.17;;;;;;;;;;5036653;28;20426;-70
2023/09/07 07:01:39;;;;;;;6.10;5.60;;;;;;;;;;5036277;28;20510;-70
2023/09/07 07:04:06;;;;;;;6.37;5.87;;;;;;;;;;5036469;28;20454;-71
2023/09/07 07:06:32;;;;;;;5.30;5.10;;;;;;;;;;5036519;28;20461;-70
2023/09/07 07:08:58;;;;;;;5.27;4.97;;;;;;;;;;5036244;28;20418;-70
2023/09/07 07:11:24;;;;;;;8.43;5.20;;;;;;;;;;5036333;28;20471;-70
2023/09/07 07:13:50;;;;;;;5.90;5.50;;;;;;;;;;5036160;28;20423;-70
2023/09/07 07:16:17;;;;;;;6.10;5.53;;;;;;;;;;5034984;28;20453;-70
2023/09/07 07:18:43;;;;;;;5.60;5.20;;;;;;;;;;5036064;28;20419;-71
2023/09/07 07:21:09;;;;;;;6.23;5.73;;;;;;;;;;5035972;28;20419;-72
2023/09/07 07:23:35;;;;;;;6.87;6.37;;;;;;;;;;5035998;28;20415;-72
2023/09/07 07:26:01;;;;;;;6.40;5.80;;;;;;;;;;5035847;28;20427;-72
2023/09/07 07:28:27;;;;;;;5.97;5.57;;;;;;;;;;5035300;28;20438;-72
2023/09/07 07:30:53;;;;;;;9.93;5.17;;;;;;;;;;5035772;28;20514;-71
2023/09/07 07:33:19;;;;;;;8.77;5.87;;;;;;;;;;5036063;28;20427;-71
2023/09/07 07:35:45;;;;;;;6.37;5.87;;;;;;;;;;5035666;28;20419;-70
2023/09/07 07:38:15;;;;;;;6.50;6.00;;;;;;;;;;5035722;28;20407;-70
2023/09/07 07:40:42;;;;;;;6.30;5.77;;;;;;;;;;5035917;28;20427;-71
2023/09/07 07:43:10;;;;;;;6.20;5.27;;;;;;;;;;5035627;28;20419;-69
2023/09/07 07:45:38;;;;;;;5.90;5.50;;;;;;;;;;5035511;28;20415;-70
2023/09/07 07:48:07;;;;;;;8.13;4.77;;;;;;;;;;5035803;28;20414;-72
2023/09/07 07:50:36;;;;;;;4.70;4.50;;;;;;;;;;5035608;28;20483;-71
2023/09/07 07:53:02;;;;;;;6.30;5.90;;;;;;;;;;5034643;28;20514;-70
2023/09/07 07:55:28;;;;;;;11.17;5.60;;;;;;;;;;5035258;28;20471;-70
2023/09/07 07:57:54;;;;;;;6.30;5.80;;;;;;;;;;5035367;28;20477;-65
2023/09/07 08:00:20;;;;;;;6.17;5.77;;;;;;;;;;5035580;28;20416;-70
2023/09/07 08:02:46;;;;;;;6.40;5.77;;;;;;;;;;5035832;28;20419;-74
2023/09/07 08:05:12;;;;;;;6.43;6.07;;;;;;;;;;5035257;28;20422;-73
2023/09/07 08:07:38;;;;;;;6.77;6.07;;;;;;;;;;5035239;28;20420;-72
2023/09/07 08:10:04;;;;;;;8.63;6.70;;;;;;;;;;5035002;28;20593;-70
2023/09/07 08:12:30;;;;;;;6.73;6.33;;;;;;;;;;5035095;28;20935;-70
2023/09/07 08:14:56;;;;;;;7.40;6.83;;;;;;;;;;5033720;28;20418;-70
2023/09/07 08:17:24;;;;;;;7.43;6.87;;;;;;;;;;5034720;28;20427;-71
2023/09/07 08:19:55;;;;;;;9.90;6.70;;;;;;;;;;5035922;28;20424;-71
2023/09/07 08:22:21;;;;;;;7.73;7.30;;;;;;;;;;5035209;28;20419;-70
2023/09/07 08:24:48;;;;;;;20.43;6.60;;;;;;;;;;5035045;28;20430;-70
2023/09/07 08:27:18;;;;;;;7.63;6.97;;;;;;;;;;5035459;28;20431;-72
2023/09/07 08:29:47;;;;;;;6.73;6.43;;;;;;;;;;5034947;28;20477;-70
2023/09/07 08:32:14;;;;;;;7.97;7.13;;;;;;;;;;5034719;28;20477;-72
2023/09/07 08:34:41;;;;;;;8.93;6.50;;;;;;;;;;5034820;28;20408;-69
2023/09/07 08:37:08;;;;;;;9.80;7.73;;;;;;;;;;5034909;28;20423;-69
2023/09/07 08:39:35;;;;;;;7.40;6.80;;;;;;;;;;5034554;28;20416;-71
2023/09/07 08:42:01;;;;;;;13.23;7.17;;;;;;;;;;5034712;28;20481;-71
2023/09/07 08:44:28;;;;;;;9.33;6.73;;;;;;;;;;5034373;28;20431;-72
2023/09/07 08:46:54;;;;;;;8.47;7.87;;;;;;;;;;5034364;28;20419;-70
2023/09/07 08:49:20;;;;;;;9.93;8.03;;;;;;;;;;5034521;28;20851;-71
2023/09/07 08:51:46;;;;;;;9.93;8.33;;;;;;;;;;5034465;28;20510;-70
2023/09/07 08:54:13;;;;;;;9.70;7.17;;;;;;;;;;5034171;28;20546;-71
2023/09/07 08:56:40;;;;;;;11.13;7.60;;;;;;;;;;5034067;28;20839;-71
2023/09/07 08:59:06;;;;;;;15.60;7.97;;;;;;;;;;5034602;28;20892;-70
2023/09/07 09:01:32;;;;;;;10.90;9.10;;;;;;;;;;5034087;28;20904;-70
2023/09/07 09:03:59;;;;;;;10.10;9.20;;;;;;;;;;5033922;28;20975;-70
2023/09/07 09:06:25;;;;;;;9.73;8.00;;;;;;;;;;5034559;28;20399;-72
2023/09/07 09:08:55;;;;;;;7.33;6.70;;;;;;;;;;5034206;28;20786;-70
2023/09/07 09:11:21;;;;;;;13.13;8.07;;;;;;;;;;5034533;28;20561;-70
2023/09/07 09:13:48;;;;;;;15.90;8.70;;;;;;;;;;5033923;28;20891;-70
2023/09/07 09:16:14;;;;;;;10.40;8.20;;;;;;;;;;5033949;28;20507;-70
2023/09/07 09:19:00;;;;;;;13.60;7.67;;;;;;;;;;5033866;28;20895;-72
2023/09/07 09:21:27;;;;;;;10.20;7.97;;;;;;;;;;5034352;28;20414;-70
2023/09/07 09:23:54;;;;;;;8.27;6.73;;;;;;;;;;5033712;28;20922;-71
2023/09/07 09:26:21;;;;;;;3.67;3.57;;;;;;;;;;5033719;28;20469;-70
2023/09/07 09:28:50;;;;;;;7.47;6.73;;;;;;;;;;5034214;28;20446;-70
2023/09/07 09:31:17;;;;;;;7.63;7.10;;;;;;;;;;5033557;28;20477;-72
2023/09/07 09:33:47;;;;;;;22.03;8.40;;;;;;;;;;5033659;28;20422;-69
2023/09/07 09:36:14;;;;;;;16.83;6.20;;;;;;;;;;5033571;28;20465;-70
2023/09/07 09:38:40;;;;;;;15.67;6.17;;;;;;;;;;5033747;28;20455;-72
2023/09/07 09:41:06;;;;;;;8.83;7.37;;;;;;;;;;5033649;28;20434;-71
2023/09/07 09:43:33;;;;;;;14.73;7.70;;;;;;;;;;5033728;28;20411;-70
2023/09/07 09:46:00;;;;;;;8.07;7.43;;;;;;;;;;5033634;28;20443;-70
2023/09/07 09:48:27;;;;;;;8.80;7.97;;;;;;;;;;5034473;28;20504;-72
2023/09/07 09:50:53;;;;;;;8.53;7.73;;;;;;;;;;5033461;28;20478;-70
2023/09/07 09:53:20;;;;;;;8.93;6.57;;;;;;;;;;5033584;28;20412;-70
2023/09/07 09:55:52;;;;;;;7.03;6.43;;;;;;;;;;5033071;28;20521;-73
2023/09/07 09:58:18;;;;;;;10.77;9.43;;;;;;;;;;5033281;28;20419;-71
2023/09/07 10:00:45;;;;;;;6.43;6.13;;;;;;;;;;5033430;28;20497;-72
2023/09/07 10:03:18;;;;;;;14.93;6.53;;;;;;;;;;5033142;28;20506;-72
2023/09/07 10:05:46;;;;;;;7.27;6.77;;;;;;;;;;5033221;28;20763;-71
2023/09/07 10:08:13;;;;;;;7.27;5.63;;;;;;;;;;5033370;28;20426;-69
2023/09/07 10:10:40;;;;;;;6.30;5.80;;;;;;;;;;5033178;28;20462;-72
2023/09/07 10:13:06;;;;;;;8.17;6.67;;;;;;;;;;5032999;28;21001;-70
2023/09/07 10:15:36;;;;;;;7.27;6.70;;;;;;;;;;5033563;28;20438;-70
2023/09/07 10:18:10;;;;;;;8.83;6.13;;;;;;;;;;5039716;28;20494;-72
2023/09/07 10:20:56;;;;;;;21.77;6.60;;;;;;;;;;5039489;28;20414;-69
2023/09/07 10:23:23;;;;;;;11.30;6.23;;;;;;;;;;5039479;28;20422;-72
2023/09/07 10:25:50;;;;;;;10.37;6.00;;;;;;;;;;5039556;28;20410;-70
2023/09/07 10:28:23;;;;;;;7.13;6.63;;;;;;;;;;5039871;28;20414;-72
2023/09/07 10:31:04;;;;;;;19.83;6.57;;;;;;;;;;5039710;28;20478;-72
2023/09/07 10:33:31;;;;;;;10.93;7.40;;;;;;;;;;5038205;28;20430;-70
2023/09/07 10:35:57;;;;;;;5.40;4.47;;;;;;;;;;5039658;28;20479;-71
2023/09/07 10:38:24;;;;;;;6.23;5.43;;;;;;;;;;5039663;28;20468;-71
2023/09/07 10:40:57;;;;;;;5.90;5.50;;;;;;;;;;5039574;28;20418;-70
2023/09/07 10:43:23;;;;;;;5.53;5.20;;;;;;;;;;5039805;28;20392;-70
2023/09/07 10:45:49;;;;;;;5.33;5.03;;;;;;;;;;5038130;28;20418;-71
2023/09/07 10:48:16;;;;;;;5.37;5.07;;;;;;;;;;5039355;28;20480;-72
2023/09/07 10:50:44;;;;;;;15.10;6.50;;;;;;;;;;5039498;28;20479;-70
2023/09/07 10:53:09;;;;;;;6.60;4.40;;;;;;;;;;5039351;28;20518;-70
2023/09/07 10:55:39;;;;;;;7.10;5.40;;;;;;;;;;5039025;28;20556;-72
2023/09/07 10:58:05;;;;;;;7.87;5.30;;;;;;;;;;5038099;28;20431;-70
2023/09/07 11:00:31;;;;;;;6.37;5.93;;;;;;;;;;5039188;28;20427;-70
2023/09/07 11:02:57;;;;;;;4.33;4.10;;;;;;;;;;5039122;28;20430;-73
2023/09/07 11:05:25;;;;;;;9.93;6.93;;;;;;;;;;5039380;28;20465;-69
2023/09/07 11:07:51;;;;;;;5.83;5.30;;;;;;;;;;5039457;28;20415;-70
2023/09/07 11:10:17;;;;;;;4.77;4.47;;;;;;;;;;5039311;28;20467;-70
2023/09/07 11:12:42;;;;;;;5.37;4.97;;;;;;;;;;5039325;28;20782;-69
2023/09/07 11:15:09;;;;;;;11.10;4.90;;;;;;;;;;5039080;28;20407;-69
2023/09/07 11:17:38;;;;;;;11.37;5.40;;;;;;;;;;5039052;28;20415;-72
2023/09/07 11:20:08;;;;;;;5.00;4.70;;;;;;;;;;5039219;28;20407;-72
2023/09/07 11:22:35;;;;;;;4.93;4.63;;;;;;;;;;5039461;28;20515;-70
2023/09/07 11:25:01;;;;;;;5.37;4.97;;;;;;;;;;5038908;28;20423;-69
2023/09/07 11:27:30;;;;;;;5.23;4.23;;;;;;;;;;5037065;28;20434;-70
2023/09/07 11:29:56;;;;;;;4.53;4.33;;;;;;;;;;5035737;28;20420;-71
2023/09/07 11:32:23;;;;;;;6.80;4.33;;;;;;;;;;5034314;28;20481;-73
2023/09/07 11:34:51;;;;;;;3.90;3.80;;;;;;;;;;5035876;28;20416;-70
2023/09/07 11:37:17;;;;;;;4.53;4.27;;;;;;;;;;5036384;28;20778;-71
2023/09/07 11:39:43;;;;;;;4.90;4.40;;;;;;;;;;5035804;28;20462;-70
2023/09/07 11:42:09;;;;;;;8.10;4.17;;;;;;;;;;5035891;28;20399;-70
2023/09/07 11:44:35;;;;;;;10.13;4.73;;;;;;;;;;5034249;28;20469;-69
2023/09/07 11:47:03;;;;;;;3.70;3.43;;;;;;;;;;5035626;28;20419;-71
2023/09/07 11:49:30;;;;;;;4.87;4.63;;;;;;;;;;5035639;28;20419;-70
2023/09/07 11:51:56;;;;;;;5.07;4.30;;;;;;;;;;5035522;28;20482;-70
2023/09/07 11:54:22;;;;;;;32.17;5.20;;;;;;;;;;5035100;28;20508;-70
2023/09/07 11:56:48;;;;;;;15.83;5.10;;;;;;;;;;5035548;28;20423;-69
2023/09/07 11:59:17;;;;;;;3.40;3.30;;;;;;;;;;5036237;28;20430;-69
2023/09/07 12:01:43;;;;;;;8.43;4.07;;;;;;;;;;5035502;28;20424;-69
2023/09/07 12:04:09;;;;;;;4.20;4.00;;;;;;;;;;5035492;28;20407;-68
2023/09/07 12:06:35;;;;;;;4.50;4.10;;;;;;;;;;5035209;28;20411;-69
2023/09/07 12:09:02;;;;;;;4.73;4.43;;;;;;;;;;5035026;28;20934;-70
2023/09/07 12:11:28;;;;;;;4.50;4.20;;;;;;;;;;5035172;28;20486;-70
2023/09/07 12:13:54;;;;;;;4.40;4.10;;;;;;;;;;5035324;28;20411;-70
2023/09/07 12:16:20;;;;;;;4.85;4.50;;;;;;;;;;5034494;28;20448;-68
2023/09/07 12:18:46;;;;;;;17.23;5.90;;;;;;;;;;5035350;28;20169;-70
2023/09/07 12:21:12;;;;;;;4.90;4.60;;;;;;;;;;5034888;28;20431;-71
2023/09/07 12:23:37;;;;;;;4.40;4.03;;;;;;;;;;5035220;28;20419;-69
2023/09/07 12:26:04;;;;;;;4.30;4.00;;;;;;;;;;5035179;28;20979;-70
2023/09/07 12:28:31;;;;;;;3.77;3.67;;;;;;;;;;5035064;28;20415;-69
2023/09/07 12:30:58;;;;;;;4.53;4.43;;;;;;;;;;5034730;28;20478;-69
2023/09/07 12:33:24;;;;;;;15.70;4.80;;;;;;;;;;5034692;28;20422;-70
2023/09/07 12:35:50;;;;;;;5.13;4.63;;;;;;;;;;5033364;28;20520;-69
2023/09/07 12:38:18;;;;;;;8.43;4.27;;;;;;;;;;5034609;28;20489;-70
2023/09/07 12:40:46;;;;;;;5.83;3.87;;;;;;;;;;5034358;28;20477;-70
2023/09/07 12:43:12;;;;;;;4.10;3.90;;;;;;;;;;5034570;28;20800;-73
2023/09/07 12:45:38;;;;;;;4.87;4.50;;;;;;;;;;5033333;28;20911;-71
2023/09/07 12:48:05;;;;;;;5.57;5.07;;;;;;;;;;5034521;28;20923;-70
2023/09/07 12:50:32;;;;;;;3.90;3.70;;;;;;;;;;5034366;28;20467;-70
2023/09/07 12:52:58;;;;;;;4.20;4.00;;;;;;;;;;5034320;28;20477;-70
2023/09/07 12:55:24;;;;;;;5.60;3.70;;;;;;;;;;5034212;28;20892;-70
2023/09/07 12:57:50;;;;;;;4.43;4.13;;;;;;;;;;5034643;28;20443;-70
2023/09/07 13:00:16;;;;;;;3.63;3.53;;;;;;;;;;5034080;28;20911;-70
2023/09/07 13:02:42;;;;;;;3.43;3.33;;;;;;;;;;5034051;28;20427;-70
2023/09/07 13:05:08;;;;;;;5.73;3.50;;;;;;;;;;5034338;28;20494;-70
2023/09/07 13:07:35;;;;;;;4.30;4.00;;;;;;;;;;5034375;28;20543;-69
2023/09/07 13:10:04;;;;;;;5.03;4.63;;;;;;;;;;5033958;28;20907;-70
2023/09/07 13:12:33;;;;;;;4.07;3.40;;;;;;;;;;5034072;28;20424;-70
2023/09/07 13:14:59;;;;;;;3.27;3.20;;;;;;;;;;5034126;28;20404;-67
2023/09/07 13:17:25;;;;;;;4.50;4.00;;;;;;;;;;5033811;28;20946;-70
2023/09/07 13:19:51;;;;;;;4.27;3.97;;;;;;;;;;5033780;28;20451;-72
2023/09/07 13:22:17;;;;;;;4.27;4.07;;;;;;;;;;5034027;28;20431;-72
2023/09/07 13:24:43;;;;;;;4.37;4.07;;;;;;;;;;5033976;28;20465;-70
2023/09/07 13:27:12;;;;;;;4.20;3.30;;;;;;;;;;5033940;28;20427;-69
2023/09/07 13:29:38;;;;;;;3.87;3.53;;;;;;;;;;5033852;28;20946;-68
2023/09/07 13:32:05;;;;;;;4.30;4.10;;;;;;;;;;5033493;28;20588;-70
2023/09/07 13:34:31;;;;;;;6.90;4.33;;;;;;;;;;5033792;28;20411;-69
2023/09/07 13:36:57;;;;;;;4.27;3.97;;;;;;;;;;5033679;28;20762;-70
2023/09/07 13:39:23;;;;;;;3.87;3.67;;;;;;;;;;5033661;28;20415;-69
2023/09/07 13:41:49;;;;;;;4.20;4.00;;;;;;;;;;5034141;28;20491;-70
2023/09/07 13:44:16;;;;;;;3.43;3.33;;;;;;;;;;5033637;28;20437;-69
2023/09/07 13:46:43;;;;;;;2.97;2.87;;;;;;;;;;5033405;28;20863;-70
2023/09/07 13:49:09;;;;;;;3.67;3.57;;;;;;;;;;5033572;28;20415;-69
2023/09/07 13:51:38;;;;;;;4.20;3.90;;;;;;;;;;5032990;28;20471;-69
2023/09/07 13:54:05;;;;;;;6.43;3.53;;;;;;;;;;5033028;28;20470;-69
2023/09/07 13:56:31;;;;;;;3.93;3.77;;;;;;;;;;5033436;28;20450;-70
2023/09/07 13:58:57;;;;;;;3.60;3.10;;;;;;;;;;5033533;28;20426;-70
2023/09/07 14:01:24;;;;;;;3.70;3.47;;;;;;;;;;5033156;28;20427;-70
2023/09/07 14:03:50;;;;;;;4.73;3.73;;;;;;;;;;5033427;28;20465;-69
2023/09/07 14:06:17;;;;;;;3.97;3.77;;;;;;;;;;5033407;28;20455;-69
2023/09/07 14:08:43;;;;;;;8.20;3.60;;;;;;;;;;5033111;28;20856;-71
2023/09/07 14:11:09;;;;;;;3.40;3.30;;;;;;;;;;5032990;28;20479;-69
2023/09/07 14:13:35;;;;;;;3.83;3.73;;;;;;;;;;5033201;28;20411;-70
2023/09/07 14:16:01;;;;;;;7.43;4.30;;;;;;;;;;5033063;28;20637;-70
2023/09/07 14:18:28;;;;;;;4.83;3.43;;;;;;;;;;5033324;28;20419;-70
2023/09/07 14:20:57;;;;;;;3.03;2.83;;;;;;;;;;5033197;28;20447;-69
2023/09/07 14:23:25;;;;;;;3.77;3.57;;;;;;;;;;5033234;28;20423;-71
2023/09/07 14:25:51;;;;;;;3.60;3.40;;;;;;;;;;5033051;28;20423;-72
2023/09/07 14:28:17;;;;;;;4.63;4.10;;;;;;;;;;5032652;28;20501;-70
2023/09/07 14:30:43;;;;;;;6.10;4.00;;;;;;;;;;5032845;28;20535;-70
2023/09/07 14:33:09;;;;;;;4.27;3.90;;;;;;;;;;5033199;28;20434;-71
2023/09/07 14:35:35;;;;;;;3.77;3.57;;;;;;;;;;5032996;28;20427;-69
2023/09/07 14:38:01;;;;;;;8.03;2.90;;;;;;;;;;5032666;28;20823;-72
2023/09/07 14:40:27;;;;;;;3.60;3.40;;;;;;;;;;5032829;28;20420;-70
2023/09/07 14:42:53;;;;;;;18.50;4.00;;;;;;;;;;5032665;28;20426;-73